Airfield :
LOGIN :

Register | Disclaimer

   EN    FR    IT 

 










Legend :    VFR   Marginal VFR   IFR   Intensive IFR   Very Intensive IFR
Visi :
Ceiling :
>= 8 km
>= 3000ft
5 to 8 km
1000 to 3000 ft
1500m to 5 km
500 to 1000 ft
800 to 1500m
200 to 500 ft
< 800m
< 200 ft
Symbols :   Thunderstorms  Fog  Heavy snow  Heavy precipitations  Wind > 20 kt
SIGMETs :     Misc.  Thunderstorms  Icing  Turbulence  Mountain Waves  Volcanic Ashes






- Airport Elevation : 238 ft
- IATA code : FAB


EGLF - Farnborough

CURRENT METAR :
  • 051550Z AUTO 21017KT 180V240 9999 FEW033/// 23/13 Q1013

EXPIRED METARs :
  • 051520Z AUTO 20017KT 9999 NCD 22/12 Q1013
  • 051450Z AUTO 21017KT 9999 NCD 24/10 Q1012
  • 051420Z AUTO 22017KT 180V240 9999 NCD 22/10 Q1013
  • 051350Z AUTO 20015KT 160V240 9999 NCD 24/11 Q1013
  • 051320Z AUTO 20015KT 170V230 9999 NCD 23/11 Q1012

TAF TAF EGLF
Valid from the 05 at 15:00 until the 05 at 23:00 UTC


051354Z 0515/0523 20014KT 9999 FEW035
TEMPO 0521/0523 BKN012
ATIS : +44 09063 800 400 (*282)



MET'MAP, your aeronautical weather chart ! - Copyright ORBIFLY December 2007 - Disclaimer

ORBIFLY MET'MAP TEAM :

Programming & Development : Alexandra Zaïnal
Concept & original design : Baudouin d'Aumeries
Assistance for programming : Marc-Olivier Méhu
Technical & hardware support : Manuel Goepfert

Contact : metmap@orbifly.com




SOURCES & CREDITS :

   NOAA